Time;durP1;ratioP1;P1;durP2;ratioP2;P2;SDS_P1;SDS_P2;PMS_P1;PMS_P2;Temp;Humidity;BMP_temperature;BMP_pressure;BME280_temperature;BME280_humidity;BME280_pressure;Samples;Min_cycle;Max_cycle;Signal;HPM_P1;HPM_P2
2023/08/22 00:00:41;;;;;;;6.40;3.77;;;17.30;99.90;;;;;;5054696;28;20208;-77
2023/08/22 00:03:07;;;;;;;6.03;3.80;;;17.30;99.90;;;;;;5054706;28;20174;-79
2023/08/22 00:05:33;;;;;;;9.17;4.30;;;17.30;99.90;;;;;;5058549;28;20176;-79
2023/08/22 00:08:04;;;;;;;8.63;4.17;;;17.30;99.90;;;;;;5058201;28;20168;-78
2023/08/22 00:10:30;;;;;;;8.07;4.30;;;17.20;99.90;;;;;;5058221;28;20182;-78
2023/08/22 00:12:56;;;;;;;8.50;3.83;;;17.20;99.90;;;;;;5058624;28;20175;-78
2023/08/22 00:15:23;;;;;;;4.87;3.70;;;17.20;99.90;;;;;;5057826;28;20580;-79
2023/08/22 00:17:48;;;;;;;11.47;3.80;;;17.20;99.90;;;;;;5057749;28;20172;-78
2023/08/22 00:20:14;;;;;;;8.33;3.73;;;17.20;99.90;;;;;;5057784;28;20199;-78
2023/08/22 00:22:40;;;;;;;8.37;3.70;;;17.20;99.90;;;;;;5057668;28;20682;-78
2023/08/22 00:25:06;;;;;;;5.87;3.80;;;17.10;99.90;;;;;;5056607;28;20211;-79
2023/08/22 00:27:33;;;;;;;11.80;3.87;;;17.10;99.90;;;;;;5056834;28;20172;-79
2023/08/22 00:29:58;;;;;;;12.07;3.90;;;17.10;99.90;;;;;;5058281;28;20635;-79
2023/08/22 00:32:24;;;;;;;5.27;3.40;;;17.00;99.90;;;;;;5057674;28;20192;-79
2023/08/22 00:34:50;;;;;;;5.10;3.40;;;17.00;99.90;;;;;;5056706;28;20267;-79
2023/08/22 00:37:15;;;;;;;7.77;3.77;;;17.00;99.90;;;;;;5057189;28;20168;-79
2023/08/22 00:39:41;;;;;;;8.90;3.80;;;17.00;99.90;;;;;;5057488;28;20253;-78
2023/08/22 00:42:07;;;;;;;11.53;3.40;;;17.00;99.90;;;;;;5057638;28;20209;-78
2023/08/22 00:44:32;;;;;;;9.57;3.80;;;17.00;99.90;;;;;;5057173;28;20639;-79
2023/08/22 00:46:59;;;;;;;11.40;3.80;;;16.90;99.90;;;;;;5057191;28;20646;-79
2023/08/22 00:49:26;;;;;;;8.20;3.70;;;16.90;99.90;;;;;;5057633;28;20171;-78
2023/08/22 00:51:52;;;;;;;14.50;4.13;;;16.90;99.90;;;;;;5056943;28;20588;-78
2023/08/22 00:54:19;;;;;;;8.10;3.80;;;16.90;99.90;;;;;;5055809;28;20175;-78
2023/08/22 00:56:45;;;;;;;5.43;4.07;;;16.80;99.90;;;;;;5057070;28;20183;-77
2023/08/22 00:59:11;;;;;;;6.10;3.70;;;16.80;99.90;;;;;;5057293;28;20179;-79
2023/08/22 01:01:36;;;;;;;6.80;3.77;;;16.70;99.90;;;;;;5057069;28;20215;-79
2023/08/22 01:04:02;;;;;;;6.97;3.83;;;16.70;99.90;;;;;;5057557;28;20180;-78
2023/08/22 01:06:46;;;;;;;11.57;3.43;;;16.70;99.90;;;;;;5055854;28;20186;-78
2023/08/22 01:09:29;;;;;;;8.63;3.63;;;16.70;99.90;;;;;;5057431;28;20191;-78
2023/08/22 01:12:02;;;;;;;5.73;3.87;;;16.60;99.90;;;;;;5057307;28;20556;-78
2023/08/22 01:14:30;;;;;;;7.70;3.57;;;16.60;99.90;;;;;;5057854;28;20160;-78
2023/08/22 01:16:57;;;;;;;6.93;3.80;;;16.60;99.90;;;;;;5057119;28;20182;-78
2023/08/22 01:19:23;;;;;;;8.37;4.00;;;16.50;99.90;;;;;;5057602;28;20183;-78
2023/08/22 01:21:52;;;;;;;7.97;4.03;;;16.60;99.90;;;;;;5055357;28;20269;-78
2023/08/22 01:24:19;;;;;;;6.77;3.90;;;16.60;99.90;;;;;;5056567;28;20620;-78
2023/08/22 01:26:47;;;;;;;6.27;3.73;;;16.60;99.90;;;;;;5056756;28;20222;-78
2023/08/22 01:29:45;;;;;;;5.07;3.70;;;16.60;99.90;;;;;;5056236;28;20548;-78
2023/08/22 01:32:29;;;;;;;3.90;3.27;;;16.50;99.90;;;;;;5046645;28;20683;-78
2023/08/22 01:35:01;;;;;;;7.73;3.63;;;16.60;99.90;;;;;;5059068;28;20163;-78
2023/08/22 01:37:31;;;;;;;6.67;3.10;;;16.60;99.90;;;;;;5056533;28;20262;-79
2023/08/22 01:39:58;;;;;;;5.17;3.30;;;16.50;99.90;;;;;;5056919;28;20187;-78
2023/08/22 01:42:24;;;;;;;5.80;3.57;;;16.50;99.90;;;;;;5056221;28;20222;-78
2023/08/22 01:44:50;;;;;;;5.70;3.53;;;16.50;99.90;;;;;;5056301;28;20647;-78
2023/08/22 01:47:16;;;;;;;6.93;3.17;;;16.60;99.90;;;;;;5056130;28;20183;-78
2023/08/22 01:49:41;;;;;;;12.40;3.33;;;16.50;99.90;;;;;;5056994;28;20198;-78
2023/08/22 01:52:07;;;;;;;7.60;3.20;;;16.60;99.90;;;;;;5057409;28;20255;-78
2023/08/22 01:54:37;;;;;;;7.20;3.53;;;16.50;99.90;;;;;;5056572;28;20211;-78
2023/08/22 01:57:03;;;;;;;9.60;3.73;;;16.50;99.90;;;;;;5056487;28;20160;-78
2023/08/22 01:59:29;;;;;;;7.33;3.70;;;16.50;99.90;;;;;;5056199;28;20211;-78
2023/08/22 02:01:54;;;;;;;7.33;3.30;;;16.50;99.90;;;;;;5057110;28;20284;-78
2023/08/22 02:04:20;;;;;;;4.27;3.67;;;16.50;99.90;;;;;;5056057;28;20641;-78
2023/08/22 02:06:46;;;;;;;3.73;3.33;;;16.40;99.90;;;;;;5056800;28;20182;-79
2023/08/22 02:09:13;;;;;;;9.00;3.57;;;16.50;99.90;;;;;;5057135;28;20175;-78
2023/08/22 02:11:39;;;;;;;11.57;3.40;;;16.50;99.90;;;;;;5055887;28;20257;-78
2023/08/22 02:14:04;;;;;;;7.43;3.10;;;16.40;99.90;;;;;;5054578;28;20176;-78
2023/08/22 02:16:30;;;;;;;7.90;3.60;;;16.60;99.90;;;;;;5056184;28;20249;-79
2023/08/22 02:18:55;;;;;;;6.83;3.77;;;16.40;99.90;;;;;;5056310;28;20187;-79
2023/08/22 02:21:21;;;;;;;8.07;4.27;;;16.40;99.90;;;;;;5056101;28;20281;-78
2023/08/22 02:23:46;;;;;;;9.27;3.87;;;16.50;99.90;;;;;;5055826;28;20180;-78
2023/08/22 02:26:12;;;;;;;5.33;3.00;;;16.40;99.90;;;;;;5055814;28;20194;-78
2023/08/22 02:28:37;;;;;;;6.43;3.50;;;16.40;99.90;;;;;;5054918;28;20188;-78
2023/08/22 02:31:03;;;;;;;4.87;3.50;;;16.40;99.90;;;;;;5055767;28;20223;-78
2023/08/22 02:33:29;;;;;;;7.53;3.60;;;16.40;99.90;;;;;;5055611;28;20175;-78
2023/08/22 02:35:55;;;;;;;8.47;3.50;;;16.40;99.90;;;;;;5057844;28;20639;-78
2023/08/22 02:38:20;;;;;;;6.73;3.77;;;16.40;99.90;;;;;;5070111;28;20179;-77
2023/08/22 02:40:46;;;;;;;10.33;3.80;;;16.40;99.90;;;;;;5071090;28;20203;-78
2023/08/22 02:43:11;;;;;;;7.67;3.60;;;16.40;99.90;;;;;;5072214;28;20179;-78
2023/08/22 02:45:37;;;;;;;8.33;3.77;;;16.40;99.90;;;;;;5072307;28;20171;-77
2023/08/22 02:48:03;;;;;;;7.90;3.60;;;16.40;99.90;;;;;;5071719;28;20164;-78
2023/08/22 02:50:29;;;;;;;13.20;4.00;;;16.40;99.90;;;;;;5071295;28;20178;-77
2023/08/22 02:52:54;;;;;;;6.17;3.93;;;16.30;99.90;;;;;;5060699;28;20679;-78
2023/08/22 02:55:20;;;;;;;9.17;3.37;;;16.40;99.90;;;;;;5054943;28;20267;-78
2023/08/22 02:57:46;;;;;;;9.10;4.03;;;16.40;99.90;;;;;;5055252;28;20661;-78
2023/08/22 03:00:13;;;;;;;9.40;3.67;;;16.30;99.90;;;;;;5054632;28;20179;-78
2023/08/22 03:02:39;;;;;;;7.93;3.83;;;16.30;99.90;;;;;;5055155;28;20272;-78
2023/08/22 03:05:08;;;;;;;8.23;3.87;;;16.30;99.90;;;;;;5054474;28;20195;-78
2023/08/22 03:07:34;;;;;;;7.30;3.60;;;16.30;99.90;;;;;;5054528;28;20190;-78
2023/08/22 03:09:59;;;;;;;7.63;3.60;;;16.20;99.90;;;;;;5057235;28;20187;-77
2023/08/22 03:12:25;;;;;;;5.50;3.57;;;16.20;99.90;;;;;;5054394;28;20205;-78
2023/08/22 03:14:50;;;;;;;6.70;3.60;;;16.20;99.90;;;;;;5054808;28;20179;-78
2023/08/22 03:17:16;;;;;;;10.63;4.30;;;16.10;99.90;;;;;;5052956;28;20672;-78
2023/08/22 03:19:42;;;;;;;7.87;3.43;;;16.20;99.90;;;;;;5054475;28;20172;-78
2023/08/22 03:22:08;;;;;;;6.67;3.40;;;16.10;99.90;;;;;;5054572;28;20249;-78
2023/08/22 03:24:33;;;;;;;5.37;3.53;;;16.10;99.90;;;;;;5053869;28;20168;-77
2023/08/22 03:26:59;;;;;;;6.87;3.80;;;16.10;99.90;;;;;;5054113;28;20178;-77
2023/08/22 03:29:24;;;;;;;11.07;3.80;;;16.10;99.90;;;;;;5054279;28;20194;-78
2023/08/22 03:31:50;;;;;;;9.13;3.57;;;16.10;99.90;;;;;;5054848;28;20284;-78
2023/08/22 03:34:16;;;;;;;6.10;3.67;;;16.10;99.90;;;;;;5054386;28;20180;-78
2023/08/22 03:36:41;;;;;;;6.70;4.13;;;16.10;99.90;;;;;;5054194;28;20180;-78
2023/08/22 03:39:07;;;;;;;5.03;3.80;;;16.10;99.90;;;;;;5055673;28;20647;-78
2023/08/22 03:41:33;;;;;;;7.87;4.20;;;16.00;99.90;;;;;;5058634;28;20214;-78
2023/08/22 03:43:58;;;;;;;5.17;3.80;;;16.10;99.90;;;;;;5065216;28;20178;-78
2023/08/22 03:46:24;;;;;;;6.67;3.90;;;16.00;99.90;;;;;;5070085;28;20593;-78
2023/08/22 03:48:49;;;;;;;6.93;3.83;;;15.90;99.90;;;;;;5060413;28;20706;-78
2023/08/22 03:51:15;;;;;;;5.20;3.87;;;16.00;99.90;;;;;;5057203;28;20214;-78
2023/08/22 03:53:40;;;;;;;6.43;3.33;;;15.90;99.90;;;;;;5057537;28;20180;-78
2023/08/22 03:56:06;;;;;;;4.83;3.93;;;15.90;99.90;;;;;;5057890;28;20172;-79
2023/08/22 03:58:31;;;;;;;7.87;4.30;;;15.90;99.90;;;;;;5057755;28;20232;-78
2023/08/22 04:01:04;;;;;;;8.97;4.10;;;15.80;99.90;;;;;;5057417;28;20231;-78
2023/08/22 04:03:30;;;;;;;10.40;3.93;;;15.80;99.90;;;;;;5057360;28;20179;-79
2023/08/22 04:05:58;;;;;;;8.83;3.70;;;15.70;99.90;;;;;;5057744;28;20172;-78
2023/08/22 04:08:23;;;;;;;4.60;3.63;;;15.80;99.90;;;;;;5056027;28;20267;-78
2023/08/22 04:10:49;;;;;;;5.07;3.67;;;15.60;99.90;;;;;;5057203;28;20207;-78
2023/08/22 04:13:14;;;;;;;8.63;4.20;;;15.70;99.90;;;;;;5057108;28;20648;-78
2023/08/22 04:15:40;;;;;;;7.67;3.43;;;15.70;99.90;;;;;;5057953;28;20191;-78
2023/08/22 04:18:06;;;;;;;5.20;3.50;;;15.70;99.90;;;;;;5058694;28;20650;-78
2023/08/22 04:20:32;;;;;;;10.30;3.80;;;15.70;99.90;;;;;;5056816;28;20187;-78
2023/08/22 04:22:58;;;;;;;6.20;3.50;;;15.70;99.90;;;;;;5057004;28;20164;-78
2023/08/22 04:25:23;;;;;;;8.10;3.90;;;15.60;99.90;;;;;;5057922;28;20167;-79
2023/08/22 04:27:49;;;;;;;7.97;4.00;;;15.70;99.90;;;;;;5057537;28;20221;-79
2023/08/22 04:30:17;;;;;;;7.10;4.13;;;15.60;99.90;;;;;;5057194;28;20171;-78
2023/08/22 04:32:44;;;;;;;4.63;3.47;;;15.50;99.90;;;;;;5055552;28;20222;-78
2023/08/22 04:35:09;;;;;;;9.00;4.13;;;15.60;99.90;;;;;;5057158;28;20170;-78
2023/08/22 04:37:35;;;;;;;6.90;3.83;;;15.60;99.90;;;;;;5057054;28;20246;-79
2023/08/22 04:40:00;;;;;;;6.67;4.23;;;15.60;99.90;;;;;;5057060;28;20206;-78
2023/08/22 04:42:26;;;;;;;5.33;4.03;;;15.60;99.90;;;;;;5057160;28;20274;-78
2023/08/22 04:44:52;;;;;;;5.57;3.73;;;15.60;99.90;;;;;;5056464;28;20178;-77
2023/08/22 04:47:17;;;;;;;9.07;3.97;;;15.50;99.90;;;;;;5053954;28;20233;-76
2023/08/22 04:49:43;;;;;;;6.47;3.87;;;15.60;99.90;;;;;;5055044;28;20239;-78
2023/08/22 04:52:09;;;;;;;8.13;3.90;;;15.60;99.90;;;;;;5054886;28;20191;-78
2023/08/22 04:54:34;;;;;;;6.00;3.80;;;15.60;99.90;;;;;;5054641;28;20659;-78
2023/08/22 04:57:00;;;;;;;5.77;3.30;;;15.50;99.90;;;;;;5056051;28;20175;-77
2023/08/22 04:59:26;;;;;;;8.27;3.80;;;15.60;99.90;;;;;;5053886;28;20176;-77
2023/08/22 05:01:51;;;;;;;5.60;3.57;;;15.60;99.90;;;;;;5055412;28;20215;-77
2023/08/22 05:04:17;;;;;;;7.50;3.63;;;15.50;99.90;;;;;;5055617;28;20675;-77
2023/08/22 05:06:42;;;;;;;5.77;3.57;;;15.60;99.90;;;;;;5054500;28;20234;-78
2023/08/22 05:09:09;;;;;;;6.80;3.20;;;15.50;99.90;;;;;;5055887;28;20203;-78
2023/08/22 05:11:35;;;;;;;7.83;3.70;;;15.60;99.90;;;;;;5055795;28;20191;-78
2023/08/22 05:14:01;;;;;;;7.23;3.53;;;15.60;99.90;;;;;;5056057;28;20186;-78
2023/08/22 05:16:26;;;;;;;9.00;3.80;;;15.60;99.90;;;;;;5056321;28;20179;-78
2023/08/22 05:18:52;;;;;;;6.40;3.77;;;15.60;99.90;;;;;;5056470;28;20172;-78
2023/08/22 05:21:17;;;;;;;9.40;4.10;;;15.60;99.90;;;;;;5039680;28;20687;-78
2023/08/22 05:23:43;;;;;;;4.30;3.67;;;15.60;99.90;;;;;;5035491;28;20199;-77
2023/08/22 05:26:08;;;;;;;4.73;3.30;;;15.60;99.90;;;;;;5041121;28;20171;-78
2023/08/22 05:28:34;;;;;;;7.97;3.57;;;15.60;99.90;;;;;;5041490;28;20200;-78
2023/08/22 05:30:59;;;;;;;6.70;3.90;;;15.60;99.90;;;;;;5044184;28;20231;-78
2023/08/22 05:33:25;;;;;;;6.70;3.83;;;15.70;99.90;;;;;;5059360;28;20225;-78
2023/08/22 05:35:50;;;;;;;4.33;3.70;;;15.70;99.90;;;;;;5058079;28;20187;-77
2023/08/22 05:38:16;;;;;;;6.13;3.67;;;15.60;99.90;;;;;;5060722;28;20269;-78
2023/08/22 05:40:41;;;;;;;8.40;3.93;;;15.60;99.90;;;;;;5060014;28;20298;-77
2023/08/22 05:43:07;;;;;;;6.70;4.37;;;15.70;99.90;;;;;;5057530;28;20218;-79
2023/08/22 05:45:33;;;;;;;7.87;4.47;;;15.70;99.90;;;;;;5058672;28;20183;-77
2023/08/22 05:47:58;;;;;;;5.63;3.70;;;15.70;99.90;;;;;;5059676;28;20172;-79
2023/08/22 05:50:24;;;;;;;5.97;4.60;;;15.70;99.90;;;;;;5059342;28;20175;-79
2023/08/22 05:52:50;;;;;;;8.17;3.93;;;15.70;99.90;;;;;;5059769;28;20199;-76
2023/08/22 05:55:16;;;;;;;5.73;3.77;;;15.70;99.90;;;;;;5060227;28;20197;-79
2023/08/22 05:57:41;;;;;;;6.03;4.50;;;15.80;99.90;;;;;;5059520;28;20183;-77
2023/08/22 06:00:08;;;;;;;5.87;3.77;;;15.80;99.90;;;;;;5057745;28;20175;-79
2023/08/22 06:02:34;;;;;;;8.73;3.60;;;15.80;99.90;;;;;;5057923;28;20194;-77
2023/08/22 06:05:00;;;;;;;11.23;4.43;;;15.80;99.90;;;;;;5058335;28;20178;-77
2023/08/22 06:07:26;;;;;;;10.93;4.10;;;15.80;99.90;;;;;;5060103;28;20171;-77
2023/08/22 06:09:51;;;;;;;5.80;3.50;;;15.80;99.90;;;;;;5059782;28;20176;-77
2023/08/22 06:12:17;;;;;;;7.53;3.97;;;15.90;99.90;;;;;;5055431;28;20199;-77
2023/08/22 06:14:43;;;;;;;8.10;3.93;;;15.90;99.90;;;;;;5054182;28;20180;-77
2023/08/22 06:17:09;;;;;;;4.93;3.60;;;15.90;99.90;;;;;;5059265;28;20171;-77
2023/08/22 06:19:34;;;;;;;7.70;3.93;;;16.00;99.90;;;;;;5061023;28;20208;-77
2023/08/22 06:22:00;;;;;;;9.33;4.30;;;16.00;99.90;;;;;;5060048;28;20270;-77
2023/08/22 06:24:26;;;;;;;7.20;3.67;;;16.00;99.90;;;;;;5060048;28;20172;-77
2023/08/22 06:26:51;;;;;;;5.23;3.80;;;16.00;99.90;;;;;;5060698;28;20178;-77
2023/08/22 06:29:17;;;;;;;4.60;3.83;;;16.10;99.90;;;;;;5061296;28;20191;-77
2023/08/22 06:31:43;;;;;;;6.03;4.10;;;16.20;99.90;;;;;;5058687;28;20203;-77
2023/08/22 06:34:08;;;;;;;8.50;4.50;;;16.30;99.90;;;;;;5060083;28;20192;-79
2023/08/22 06:36:34;;;;;;;8.97;4.30;;;16.20;99.90;;;;;;5056371;28;20179;-77
2023/08/22 06:39:00;;;;;;;6.47;5.27;;;16.30;99.90;;;;;;5060491;28;20199;-77
2023/08/22 06:41:26;;;;;;;9.80;6.50;;;16.30;99.90;;;;;;5058874;28;20507;-77
2023/08/22 06:43:52;;;;;;;15.57;7.23;;;16.40;99.90;;;;;;5058131;28;20186;-77
2023/08/22 06:46:21;;;;;;;14.60;8.17;;;16.50;99.90;;;;;;5059667;28;20262;-77
2023/08/22 06:48:50;;;;;;;17.47;10.90;;;16.60;99.90;;;;;;5060386;28;20167;-77
2023/08/22 06:51:15;;;;;;;19.73;13.07;;;16.70;99.90;;;;;;5060962;28;20203;-78
2023/08/22 06:53:41;;;;;;;22.03;17.77;;;16.80;99.90;;;;;;5055527;28;20244;-78
2023/08/22 06:56:08;;;;;;;28.63;18.67;;;17.00;99.90;;;;;;5054824;28;20592;-78
2023/08/22 06:58:34;;;;;;;20.50;15.70;;;17.10;99.90;;;;;;5053095;28;20172;-78
2023/08/22 07:00:59;;;;;;;21.63;16.00;;;17.20;99.90;;;;;;5053031;28;20290;-78
2023/08/22 07:03:25;;;;;;;20.47;14.27;;;17.30;99.90;;;;;;5053668;28;20176;-78
2023/08/22 07:05:54;;;;;;;24.70;15.17;;;17.40;99.90;;;;;;5054390;28;20199;-78
2023/08/22 07:08:20;;;;;;;16.63;13.53;;;17.50;99.90;;;;;;5054916;28;20505;-78
2023/08/22 07:10:46;;;;;;;18.27;12.07;;;17.60;99.90;;;;;;5054429;28;20198;-78
2023/08/22 07:13:14;;;;;;;18.93;13.10;;;17.70;99.90;;;;;;5054013;28;20180;-78
2023/08/22 07:15:40;;;;;;;17.27;11.47;;;17.80;99.90;;;;;;5058295;28;20175;-78
2023/08/22 07:18:05;;;;;;;16.20;11.37;;;17.90;99.90;;;;;;5058299;28;20198;-78
2023/08/22 07:20:31;;;;;;;18.50;11.53;;;18.00;99.90;;;;;;5058108;28;20203;-78
2023/08/22 07:22:56;;;;;;;16.97;10.80;;;18.00;99.90;;;;;;5058262;28;20214;-80
2023/08/22 07:25:22;;;;;;;20.07;11.17;;;18.10;99.90;;;;;;5058180;28;20164;-78
2023/08/22 07:27:47;;;;;;;16.17;11.90;;;18.20;99.90;;;;;;5056641;28;20553;-78
2023/08/22 07:30:13;;;;;;;16.87;10.87;;;18.30;99.90;;;;;;5057887;28;20708;-78
2023/08/22 07:32:38;;;;;;;18.87;12.30;;;18.40;99.90;;;;;;5057647;28;20755;-77
2023/08/22 07:35:05;;;;;;;15.47;11.57;;;18.50;99.90;;;;;;5056232;28;20172;-77
2023/08/22 07:37:31;;;;;;;16.20;11.07;;;18.50;99.90;;;;;;5056709;28;20198;-78
2023/08/22 07:39:56;;;;;;;15.80;11.00;;;18.60;99.90;;;;;;5058154;28;20168;-78
2023/08/22 07:42:22;;;;;;;16.23;9.47;;;18.70;99.90;;;;;;5038248;28;20238;-78
2023/08/22 07:44:48;;;;;;;15.47;10.03;;;18.80;99.90;;;;;;5036228;28;20600;-78
2023/08/22 07:47:13;;;;;;;12.77;9.10;;;18.90;99.90;;;;;;5038646;28;20203;-78
2023/08/22 07:49:39;;;;;;;15.83;9.33;;;18.90;99.90;;;;;;5038528;28;20206;-78
2023/08/22 07:52:04;;;;;;;19.07;11.67;;;19.10;99.90;;;;;;5038119;28;20196;-78
2023/08/22 07:54:30;;;;;;;17.33;9.27;;;19.20;99.90;;;;;;5038886;28;20267;-78
2023/08/22 07:56:56;;;;;;;14.63;9.83;;;19.40;99.90;;;;;;5042351;28;20211;-78
2023/08/22 07:59:21;;;;;;;17.43;10.10;;;19.40;99.90;;;;;;5048770;28;20189;-79
2023/08/22 08:01:47;;;;;;;26.17;14.73;;;19.50;99.90;;;;;;5056954;28;20706;-78
2023/08/22 08:04:13;;;;;;;22.40;11.13;;;19.70;99.90;;;;;;5066928;28;20187;-78
2023/08/22 08:06:38;;;;;;;19.23;10.70;;;20.00;99.90;;;;;;5065316;28;20255;-78
2023/08/22 08:09:04;;;;;;;22.67;10.47;;;20.20;99.90;;;;;;5057530;28;20175;-78
2023/08/22 08:11:30;;;;;;;19.67;11.07;;;20.20;99.90;;;;;;5039491;28;20203;-78
2023/08/22 08:13:56;;;;;;;21.77;11.27;;;20.30;99.90;;;;;;5037613;28;20185;-78
2023/08/22 08:16:22;;;;;;;21.40;11.07;;;20.60;99.90;;;;;;5036069;28;20271;-78
2023/08/22 08:18:49;;;;;;;33.00;13.27;;;20.60;99.90;;;;;;5036464;28;20212;-78
2023/08/22 08:21:15;;;;;;;31.47;13.07;;;20.70;99.90;;;;;;5036469;28;20305;-78
2023/08/22 08:23:41;;;;;;;23.03;12.63;;;20.70;99.90;;;;;;5037201;28;20180;-78
2023/08/22 08:26:07;;;;;;;36.20;15.13;;;20.90;99.90;;;;;;5048063;28;20175;-78
2023/08/22 08:28:33;;;;;;;29.73;14.67;;;21.00;99.90;;;;;;5057711;28;20205;-78
2023/08/22 08:30:59;;;;;;;30.07;14.73;;;21.10;99.90;;;;;;5057350;28;20230;-78
2023/08/22 08:33:24;;;;;;;28.47;14.83;;;21.20;99.90;;;;;;5057831;28;20210;-78
2023/08/22 08:35:51;;;;;;;35.23;15.17;;;21.50;99.90;;;;;;5057527;28;20674;-78
2023/08/22 08:38:16;;;;;;;32.87;13.87;;;21.40;99.90;;;;;;5057406;28;20202;-78
2023/08/22 08:40:42;;;;;;;29.33;13.47;;;21.60;99.90;;;;;;5043242;28;20212;-78
2023/08/22 08:43:08;;;;;;;30.10;14.73;;;21.70;99.90;;;;;;5036167;28;20172;-78
2023/08/22 08:45:34;;;;;;;33.23;12.63;;;21.60;99.90;;;;;;5037305;28;20575;-78
2023/08/22 08:48:02;;;;;;;32.30;12.83;;;21.90;99.90;;;;;;5054152;28;20237;-78
2023/08/22 08:50:30;;;;;;;33.00;14.17;;;21.90;99.90;;;;;;5057588;28;20172;-78
2023/08/22 08:52:55;;;;;;;31.70;14.40;;;21.90;99.90;;;;;;5055544;28;20199;-78
2023/08/22 08:55:21;;;;;;;28.90;12.20;;;22.00;99.90;;;;;;5056865;28;20178;-77
2023/08/22 08:57:47;;;;;;;26.63;11.97;;;22.30;99.90;;;;;;5057291;28;20163;-78
2023/08/22 09:00:14;;;;;;;22.27;9.50;;;22.20;99.90;;;;;;5056638;28;20168;-78
2023/08/22 09:02:40;;;;;;;23.13;10.20;;;22.30;99.90;;;;;;5056358;28;20689;-78
2023/08/22 09:05:06;;;;;;;20.93;9.27;;;22.30;99.90;;;;;;5056996;28;20250;-78
2023/08/22 09:07:32;;;;;;;21.27;8.60;;;22.40;1.00;;;;;;5056619;28;20163;-78
2023/08/22 09:10:00;;;;;;;28.97;9.80;;;22.40;99.90;;;;;;5056241;28;20172;-79
2023/08/22 09:12:33;;;;;;;18.10;8.40;;;22.50;1.00;;;;;;5056485;28;20569;-78
2023/08/22 09:14:59;;;;;;;21.67;8.97;;;22.50;99.90;;;;;;5056593;28;20183;-78
2023/08/22 09:17:28;;;;;;;19.77;8.03;;;22.50;99.90;;;;;;5056547;28;20171;-78
2023/08/22 09:19:54;;;;;;;19.00;7.67;;;22.60;99.90;;;;;;5056319;28;20175;-78
2023/08/22 09:22:19;;;;;;;15.03;7.70;;;22.60;1.00;;;;;;5055123;28;20203;-78
2023/08/22 09:24:52;;;;;;;11.73;6.53;;;22.60;1.00;;;;;;5056530;28;20172;-78
2023/08/22 09:27:37;;;;;;;11.03;4.77;;;22.60;1.00;;;;;;5055174;28;20788;-78
2023/08/22 09:30:04;;;;;;;12.17;4.17;;;22.50;6.50;;;;;;5056754;28;20167;-78
2023/08/22 09:32:30;;;;;;;10.77;4.00;;;22.80;1.00;;;;;;5056614;28;20187;-78
2023/08/22 09:34:58;;;;;;;10.23;3.23;;;22.90;99.90;;;;;;5056667;28;20670;-78
2023/08/22 09:37:32;;;;;;;8.63;3.77;;;23.00;99.90;;;;;;5055936;28;20179;-77
2023/08/22 09:39:57;;;;;;;8.10;3.50;;;23.10;99.90;;;;;;5054828;28;20182;-79
2023/08/22 09:42:26;;;;;;;14.83;4.40;;;23.10;99.90;;;;;;5056210;28;20203;-78
2023/08/22 09:44:55;;;;;;;10.27;4.10;;;23.10;1.00;;;;;;5056492;28;20198;-78
2023/08/22 09:47:22;;;;;;;13.60;4.47;;;23.20;1.00;;;;;;5055679;28;20760;-78
2023/08/22 09:49:50;;;;;;;13.30;4.63;;;23.30;1.00;;;;;;5055762;28;20171;-78
2023/08/22 09:52:16;;;;;;;14.27;4.97;;;23.40;1.00;;;;;;5055678;28;20214;-78
2023/08/22 09:54:43;;;;;;;18.20;4.70;;;23.30;99.90;;;;;;5055714;28;20582;-78
2023/08/22 09:57:10;;;;;;;7.67;4.60;;;23.40;99.90;;;;;;5055697;28;20164;-79
2023/08/22 09:59:37;;;;;;;12.27;4.60;;;23.50;1.00;;;;;;5055952;28;20262;-78
2023/08/22 10:02:05;;;;;;;10.60;4.20;;;23.60;1.00;;;;;;5056170;28;20655;-78
2023/08/22 10:04:32;;;;;;;7.93;3.70;;;23.70;32.60;;;;;;5055955;28;20631;-78
2023/08/22 10:06:57;;;;;;;9.30;3.30;;;23.80;1.00;;;;;;5054147;28;20619;-78
2023/08/22 10:09:23;;;;;;;8.43;2.80;;;23.80;99.90;;;;;;5056995;28;20226;-78
2023/08/22 10:11:55;;;;;;;6.17;3.00;;;23.80;1.00;;;;;;5064673;28;20259;-78
2023/08/22 10:14:43;;;;;;;12.07;3.40;;;23.80;91.00;;;;;;5069205;28;20178;-79
2023/08/22 10:17:16;;;;;;;6.87;2.70;;;23.90;99.90;;;;;;5055349;28;20217;-78
2023/08/22 10:19:42;;;;;;;6.47;2.80;;;23.80;99.90;;;;;;5055552;28;20475;-78
2023/08/22 10:22:12;;;;;;;6.90;2.53;;;23.80;1.00;;;;;;5055587;28;20203;-78
2023/08/22 10:24:39;;;;;;;10.07;3.13;;;23.80;99.90;;;;;;5055668;28;20164;-79
2023/08/22 10:27:13;;;;;;;6.20;2.60;;;23.80;1.00;;;;;;5055562;28;20255;-79
2023/08/22 10:29:47;;;;;;;10.20;2.63;;;23.80;99.90;;;;;;5055203;28;20183;-78
2023/08/22 10:32:19;;;;;;;6.10;2.80;;;23.80;1.00;;;;;;5054951;28;20282;-78
2023/08/22 10:34:45;;;;;;;5.50;2.30;;;23.80;1.00;;;;;;5055437;28;20251;-78
2023/08/22 10:37:20;;;;;;;10.03;2.57;;;23.80;1.00;;;;;;5055127;28;20195;-78
2023/08/22 10:39:47;;;;;;;8.03;2.60;;;23.90;99.90;;;;;;5055383;28;20182;-78
2023/08/22 10:42:13;;;;;;;10.07;2.20;;;23.90;1.00;;;;;;5054947;28;20211;-78
2023/08/22 10:44:39;;;;;;;4.80;2.47;;;24.00;37.80;;;;;;5053391;28;20190;-79
2023/08/22 10:47:27;;;;;;;7.00;3.30;;;24.00;99.90;;;;;;5055858;28;20164;-78
2023/08/22 10:49:58;;;;;;;8.33;2.97;;;24.10;99.90;;;;;;5052764;28;20172;-78
2023/08/22 10:52:36;;;;;;;7.43;2.70;;;24.10;99.90;;;;;;5054721;28;20191;-78
2023/08/22 10:55:12;;;;;;;5.73;2.80;;;24.10;99.90;;;;;;5053731;28;20627;-78
2023/08/22 10:57:44;;;;;;;10.90;3.13;;;24.10;99.90;;;;;;5055431;28;20175;-77
2023/08/22 11:00:19;;;;;;;9.68;3.42;;;23.90;99.90;;;;;;5054910;28;20242;-78
2023/08/22 11:02:45;;;;;;;6.63;2.80;;;24.00;57.70;;;;;;5054849;28;20808;-77
2023/08/22 11:05:12;;;;;;;9.73;3.10;;;24.00;99.90;;;;;;5054756;28;20222;-78
2023/08/22 11:07:40;;;;;;;8.67;3.60;;;24.00;99.90;;;;;;5054689;28;20651;-78
2023/08/22 11:10:07;;;;;;;6.07;3.53;;;23.90;1.00;;;;;;5054145;28;20195;-78
2023/08/22 11:12:33;;;;;;;11.30;3.37;;;23.90;1.00;;;;;;5054699;28;20269;-78
2023/08/22 11:14:59;;;;;;;12.43;4.60;;;24.00;47.90;;;;;;5054635;28;20168;-78
2023/08/22 11:17:25;;;;;;;10.63;3.57;;;24.00;1.00;;;;;;5054321;28;20651;-79
2023/08/22 11:19:53;;;;;;;7.45;3.60;;;24.20;99.90;;;;;;5054682;28;20190;-78
2023/08/22 11:22:19;;;;;;;9.07;3.40;;;24.20;99.90;;;;;;5054369;28;20210;-78
2023/08/22 11:24:46;;;;;;;8.57;3.03;;;24.30;99.90;;;;;;5054472;28;20175;-78
2023/08/22 11:27:16;;;;;;;7.97;3.30;;;24.40;1.00;;;;;;5054164;28;20204;-78
2023/08/22 11:29:46;;;;;;;8.60;3.20;;;24.50;1.00;;;;;;5054551;28;20191;-78
2023/08/22 11:32:28;;;;;;;5.57;2.75;;;24.50;1.00;;;;;;5054076;28;20621;-78
2023/08/22 11:34:55;;;;;;;7.35;2.67;;;24.60;1.00;;;;;;5054521;28;20164;-79
2023/08/22 11:37:21;;;;;;;9.15;3.70;;;24.60;1.00;;;;;;5055048;28;20183;-79
2023/08/22 11:39:51;;;;;;;6.10;2.65;;;24.60;99.90;;;;;;5053586;28;20183;-78
2023/08/22 11:42:18;;;;;;;9.32;2.40;;;24.70;1.00;;;;;;5055962;28;20238;-78
2023/08/22 11:45:08;;;;;;;4.85;2.00;;;24.70;1.00;;;;;;5055579;28;20627;-78
2023/08/22 11:47:46;;;;;;;7.78;2.05;;;24.80;1.00;;;;;;5056402;28;20152;-79
2023/08/22 11:50:16;;;;;;;6.30;1.60;;;24.90;99.90;;;;;;5056526;28;20533;-79
2023/08/22 11:52:47;;;;;;;7.18;1.77;;;24.90;99.90;;;;;;5055280;28;20541;-79
2023/08/22 11:55:20;;;;;;;5.13;1.83;;;24.80;1.00;;;;;;5055875;28;20656;-79
2023/08/22 11:57:47;;;;;;;8.65;2.00;;;24.80;99.90;;;;;;5056553;28;20190;-78
2023/08/22 12:00:15;;;;;;;8.27;2.55;;;24.90;1.00;;;;;;5057127;28;20169;-79
2023/08/22 12:02:50;;;;;;;6.78;2.25;;;24.90;99.90;;;;;;5057815;28;20372;-80
2023/08/22 12:05:48;;;;;;;8.23;2.78;;;25.00;99.90;;;;;;5059003;28;20309;-80
2023/08/22 12:08:13;;;;;;;11.52;2.67;;;25.00;99.90;;;;;;5059755;28;20187;-79
2023/08/22 12:10:49;;;;;;;7.53;2.17;;;25.00;99.90;;;;;;5058544;28;20177;-79
2023/08/22 12:13:17;;;;;;;6.75;2.63;;;25.10;99.90;;;;;;5059381;28;20540;-79
2023/08/22 12:15:43;;;;;;;6.47;2.30;;;25.00;99.90;;;;;;5060330;28;20558;-79
2023/08/22 12:18:09;;;;;;;7.07;2.38;;;25.00;99.90;;;;;;5061253;28;20210;-79
2023/08/22 12:20:38;;;;;;;5.47;2.00;;;25.10;1.00;;;;;;5070628;28;20178;-79
2023/08/22 12:23:06;;;;;;;6.95;2.13;;;25.10;1.00;;;;;;5063291;28;20580;-79
2023/08/22 12:25:33;;;;;;;5.43;1.98;;;25.10;99.90;;;;;;5058427;28;20186;-79
2023/08/22 12:28:00;;;;;;;8.52;2.70;;;25.20;99.90;;;;;;5057923;28;20726;-79
2023/08/22 12:30:25;;;;;;;8.48;2.20;;;25.30;99.90;;;;;;5058818;28;20530;-79
2023/08/22 12:32:51;;;;;;;5.47;2.40;;;25.30;99.90;;;;;;5058241;28;20202;-79
2023/08/22 12:35:16;;;;;;;4.25;1.63;;;25.40;99.90;;;;;;5058766;28;20171;-79
2023/08/22 12:37:42;;;;;;;6.68;2.08;;;25.40;99.90;;;;;;5056734;28;20270;-79
2023/08/22 12:40:11;;;;;;;4.22;2.15;;;25.50;1.00;;;;;;5056037;28;20168;-79
2023/08/22 12:42:39;;;;;;;8.25;2.10;;;25.50;1.00;;;;;;5057057;28;20206;-78